createdAt,value
2018-12-19T00:00:02.242Z,4.07
2018-12-19T00:02:30.455Z,4.30
2018-12-19T00:04:58.692Z,5.20
2018-12-19T00:07:26.959Z,4.03
2018-12-19T00:09:55.147Z,4.00
2018-12-19T00:12:23.444Z,4.80
2018-12-19T00:14:51.666Z,4.97
2018-12-19T00:17:19.898Z,4.63
2018-12-19T00:19:48.144Z,4.60
2018-12-19T00:22:16.352Z,5.27
2018-12-19T00:24:44.604Z,4.30
2018-12-19T00:27:12.904Z,4.83
2018-12-19T00:29:41.111Z,5.27
2018-12-19T00:32:09.458Z,4.53
2018-12-19T00:34:37.732Z,4.57
2018-12-19T00:37:05.951Z,4.70
2018-12-19T00:39:34.286Z,4.83
2018-12-19T00:42:02.465Z,3.80
2018-12-19T00:44:30.673Z,4.03
2018-12-19T00:46:58.892Z,4.73
2018-12-19T00:49:27.109Z,4.90
2018-12-19T00:51:55.432Z,3.93
2018-12-19T00:54:23.742Z,5.27
2018-12-19T00:56:51.973Z,4.13
2018-12-19T00:59:20.182Z,4.10
2018-12-19T01:01:48.409Z,4.80
2018-12-19T01:04:16.629Z,3.87
2018-12-19T01:06:44.916Z,4.53
2018-12-19T01:09:15.904Z,5.73
2018-12-19T01:11:43.405Z,3.77
2018-12-19T01:14:11.636Z,5.03
2018-12-19T01:16:39.966Z,5.83
2018-12-19T01:19:08.224Z,4.23
2018-12-19T01:21:36.501Z,4.37
2018-12-19T01:24:04.779Z,5.33
2018-12-19T01:26:33.005Z,4.73
2018-12-19T01:29:01.194Z,5.23
2018-12-19T01:31:29.490Z,4.37
2018-12-19T01:33:57.698Z,4.87
2018-12-19T01:36:26.008Z,4.97
2018-12-19T01:38:54.324Z,4.20
2018-12-19T01:41:22.603Z,5.27
2018-12-19T01:43:51.131Z,5.17
2018-12-19T01:46:19.507Z,5.23
2018-12-19T01:48:47.819Z,3.70
2018-12-19T01:51:16.047Z,5.07
2018-12-19T01:53:44.357Z,5.23
2018-12-19T01:56:12.562Z,4.57
2018-12-19T01:58:40.773Z,4.30
2018-12-19T02:01:09.012Z,3.93
2018-12-19T02:03:37.234Z,5.00
2018-12-19T02:06:05.586Z,4.97
2018-12-19T02:08:33.812Z,4.13
2018-12-19T02:11:02.088Z,5.00
2018-12-19T02:13:30.308Z,4.77
2018-12-19T02:15:58.526Z,4.53
2018-12-19T02:18:26.757Z,4.90
2018-12-19T02:20:55.034Z,4.23
2018-12-19T02:23:23.277Z,4.53
2018-12-19T02:25:51.521Z,4.50
2018-12-19T02:28:19.798Z,3.90
2018-12-19T02:30:48.028Z,3.90
2018-12-19T02:33:16.303Z,4.63
2018-12-19T02:35:44.650Z,3.40
2018-12-19T02:38:13.031Z,5.20
2018-12-19T02:40:41.220Z,4.87
2018-12-19T02:43:09.488Z,4.43
2018-12-19T02:45:37.757Z,4.83
2018-12-19T02:48:05.998Z,4.43
2018-12-19T02:50:34.285Z,3.93
2018-12-19T02:53:02.493Z,4.63
2018-12-19T02:55:30.732Z,3.93
2018-12-19T02:57:58.929Z,4.90
2018-12-19T03:00:27.153Z,4.90
2018-12-19T03:02:55.369Z,3.93
2018-12-19T03:05:23.673Z,4.70
2018-12-19T03:07:52.006Z,4.67
2018-12-19T03:10:20.255Z,4.73
2018-12-19T03:12:48.658Z,5.60
2018-12-19T03:15:17.174Z,4.37
2018-12-19T03:17:45.478Z,4.63
2018-12-19T03:20:13.817Z,5.20
2018-12-19T03:22:42.030Z,3.87
2018-12-19T03:25:10.260Z,4.43
2018-12-19T03:27:38.459Z,4.27
2018-12-19T03:30:06.922Z,4.83
2018-12-19T03:32:35.256Z,4.63
2018-12-19T03:35:03.885Z,4.07
2018-12-19T03:37:32.117Z,4.83
2018-12-19T03:40:00.325Z,4.80
2018-12-19T03:42:28.640Z,4.03
2018-12-19T03:44:56.871Z,4.43
2018-12-19T03:47:25.077Z,4.60
2018-12-19T03:49:53.549Z,3.87
2018-12-19T03:52:21.844Z,3.47
2018-12-19T03:54:50.047Z,3.73
2018-12-19T03:57:18.437Z,4.67
2018-12-19T03:59:46.757Z,3.37
2018-12-19T04:02:15.094Z,4.50
2018-12-19T04:04:43.306Z,3.30
2018-12-19T04:07:11.509Z,3.63
2018-12-19T04:09:39.744Z,4.47
2018-12-19T04:12:08.092Z,3.87
2018-12-19T04:14:36.481Z,4.30
2018-12-19T04:17:04.710Z,4.30
2018-12-19T04:19:32.948Z,4.27
2018-12-19T04:22:01.179Z,4.10
2018-12-19T04:24:29.433Z,3.83
2018-12-19T04:26:57.690Z,3.77
2018-12-19T04:29:25.934Z,4.37
2018-12-19T04:31:54.267Z,3.40
2018-12-19T04:34:22.491Z,4.60
2018-12-19T04:36:50.695Z,4.73
2018-12-19T04:39:18.904Z,3.90
2018-12-19T04:41:47.299Z,3.40
2018-12-19T04:44:15.532Z,3.73
2018-12-19T04:46:43.724Z,4.17
2018-12-19T04:49:11.985Z,4.30
2018-12-19T04:51:40.218Z,4.73
2018-12-19T04:54:08.461Z,3.33
2018-12-19T04:56:36.701Z,3.50
2018-12-19T04:59:04.951Z,4.87
2018-12-19T05:01:33.311Z,4.17
2018-12-19T05:04:01.629Z,3.70
2018-12-19T05:06:29.843Z,3.83
2018-12-19T05:08:58.132Z,3.20
2018-12-19T05:11:26.431Z,3.93
2018-12-19T05:13:54.684Z,3.67
2018-12-19T05:16:22.962Z,3.73
2018-12-19T05:18:51.205Z,4.27
2018-12-19T05:21:19.449Z,4.13
2018-12-19T05:23:47.758Z,3.90
2018-12-19T05:26:16.660Z,3.20
2018-12-19T05:28:44.957Z,4.37
2018-12-19T05:31:13.301Z,3.17
2018-12-19T05:33:41.531Z,3.37
2018-12-19T05:36:09.881Z,3.90
2018-12-19T05:38:38.122Z,3.70
2018-12-19T05:41:06.361Z,4.07
2018-12-19T05:43:34.608Z,3.50
2018-12-19T05:46:02.856Z,4.70
2018-12-19T05:48:31.116Z,4.37
2018-12-19T05:50:59.375Z,5.40
2018-12-19T05:53:27.715Z,4.10
2018-12-19T05:55:55.954Z,3.83
2018-12-19T05:58:24.226Z,4.27
2018-12-19T06:00:52.451Z,4.07
2018-12-19T06:03:20.689Z,3.57
2018-12-19T06:05:48.966Z,3.67
2018-12-19T06:08:17.205Z,4.40
2018-12-19T06:10:45.452Z,4.80
2018-12-19T06:13:13.692Z,4.37
2018-12-19T06:15:41.906Z,4.53
2018-12-19T06:18:10.205Z,4.43
2018-12-19T06:20:38.461Z,3.33
2018-12-19T06:23:06.753Z,4.13
2018-12-19T06:25:35.025Z,4.30
2018-12-19T06:28:03.380Z,4.53
2018-12-19T06:30:32.076Z,3.77
2018-12-19T06:33:00.285Z,4.63
2018-12-19T06:35:28.496Z,5.33
2018-12-19T06:37:56.741Z,5.00
2018-12-19T06:40:24.959Z,3.53
2018-12-19T06:42:53.269Z,4.47
2018-12-19T06:45:21.701Z,3.93
2018-12-19T06:47:50.010Z,4.53
2018-12-19T06:50:18.236Z,5.13
2018-12-19T06:52:47.079Z,4.90
2018-12-19T06:55:15.274Z,4.80
2018-12-19T06:57:43.490Z,4.60
2018-12-19T07:00:12.020Z,4.57
2018-12-19T07:02:40.301Z,4.63
2018-12-19T07:05:08.699Z,4.63
2018-12-19T07:07:37.297Z,4.57
2018-12-19T07:10:05.898Z,5.00
2018-12-19T07:12:34.094Z,4.53
2018-12-19T07:15:02.432Z,4.73
2018-12-19T07:17:30.663Z,4.90
2018-12-19T07:19:58.926Z,4.00
2018-12-19T07:22:27.163Z,5.17
2018-12-19T07:24:55.489Z,4.37
2018-12-19T07:27:23.962Z,4.87
2018-12-19T07:29:52.235Z,4.47
2018-12-19T07:32:20.466Z,5.00
2018-12-19T07:34:48.692Z,3.60
2018-12-19T07:37:16.924Z,4.63
2018-12-19T07:39:45.185Z,4.80
2018-12-19T07:42:13.373Z,5.70
2018-12-19T07:44:41.629Z,4.57
2018-12-19T07:47:09.896Z,5.20
2018-12-19T07:49:38.139Z,4.83
2018-12-19T07:52:06.345Z,4.80
2018-12-19T07:54:34.606Z,4.60
2018-12-19T07:57:02.821Z,4.97
2018-12-19T07:59:31.177Z,5.50
2018-12-19T08:01:59.385Z,4.33
2018-12-19T08:04:28.161Z,6.23
2018-12-19T08:06:56.402Z,4.80
2018-12-19T08:09:24.615Z,4.70
2018-12-19T08:11:52.868Z,5.33
2018-12-19T08:14:21.063Z,5.17
2018-12-19T08:16:49.285Z,5.17
2018-12-19T08:19:17.525Z,4.63
2018-12-19T08:21:45.762Z,4.40
2018-12-19T08:24:13.990Z,5.13
2018-12-19T08:26:42.207Z,4.20
2018-12-19T08:29:10.429Z,5.23
2018-12-19T08:31:38.794Z,4.53
2018-12-19T08:34:07.301Z,5.43
2018-12-19T08:36:35.669Z,5.63
2018-12-19T08:39:06.032Z,5.57
2018-12-19T08:41:34.829Z,4.10
2018-12-19T08:44:03.058Z,6.43
2018-12-19T08:46:31.335Z,4.67
2018-12-19T08:48:59.532Z,5.60
2018-12-19T08:51:27.860Z,5.87
2018-12-19T08:53:56.089Z,5.90
2018-12-19T08:56:24.328Z,5.37
2018-12-19T08:58:52.538Z,5.30
2018-12-19T09:01:20.773Z,5.90
2018-12-19T09:03:48.987Z,5.17
2018-12-19T09:06:17.205Z,5.07
2018-12-19T09:08:45.440Z,4.50
2018-12-19T09:11:13.998Z,5.93
2018-12-19T09:13:42.273Z,5.97
2018-12-19T09:16:10.597Z,5.70
2018-12-19T09:18:39.364Z,5.63
2018-12-19T09:21:07.568Z,5.40
2018-12-19T09:23:35.791Z,6.17
2018-12-19T09:26:04.077Z,7.00
2018-12-19T09:28:32.327Z,5.27
2018-12-19T09:31:00.563Z,5.90
2018-12-19T09:33:28.783Z,5.93
2018-12-19T09:35:57.024Z,6.60
2018-12-19T09:38:25.253Z,7.43
2018-12-19T09:40:53.566Z,6.73
2018-12-19T09:43:21.785Z,7.00
2018-12-19T09:45:49.997Z,6.67
2018-12-19T09:48:18.801Z,6.20
2018-12-19T09:50:47.005Z,5.47
2018-12-19T09:53:15.563Z,7.27
2018-12-19T09:55:43.764Z,5.77
2018-12-19T09:58:12.020Z,6.33
2018-12-19T10:00:40.216Z,6.40
2018-12-19T10:03:08.442Z,7.03
2018-12-19T10:05:36.623Z,7.37
2018-12-19T10:08:04.977Z,6.73
2018-12-19T10:10:33.238Z,7.50
2018-12-19T10:13:01.425Z,6.90
2018-12-19T10:15:29.654Z,6.73
2018-12-19T10:17:57.833Z,8.10
2018-12-19T10:20:26.051Z,7.57
2018-12-19T10:22:55.602Z,6.97
2018-12-19T10:25:24.591Z,8.20
2018-12-19T10:27:52.806Z,7.57
2018-12-19T10:30:21.105Z,8.63
2018-12-19T10:32:55.481Z,8.53
2018-12-19T10:35:24.819Z,7.27
2018-12-19T10:37:53.184Z,9.53
2018-12-19T10:40:21.421Z,8.57
2018-12-19T10:42:49.644Z,9.03
2018-12-19T10:45:17.877Z,6.83
2018-12-19T10:47:46.086Z,7.07
2018-12-19T10:50:14.293Z,7.70
2018-12-19T10:52:42.537Z,8.27
2018-12-19T10:55:10.894Z,9.00
2018-12-19T10:57:39.104Z,7.83
2018-12-19T11:00:16.062Z,9.00
2018-12-19T11:02:44.308Z,8.20
2018-12-19T11:05:12.523Z,8.53
2018-12-19T11:07:40.810Z,7.87
2018-12-19T11:10:09.209Z,8.40
2018-12-19T11:12:37.413Z,7.87
2018-12-19T11:15:08.968Z,7.00
2018-12-19T11:17:37.215Z,8.17
2018-12-19T11:20:06.694Z,7.93
2018-12-19T11:22:34.924Z,7.90
2018-12-19T11:25:03.558Z,7.27
2018-12-19T11:27:31.765Z,8.40
2018-12-19T11:30:00.368Z,8.97
2018-12-19T11:32:28.614Z,7.90
2018-12-19T11:34:56.819Z,8.17
2018-12-19T11:37:25.030Z,7.33
2018-12-19T11:39:53.245Z,8.20
2018-12-19T11:42:21.445Z,7.87
2018-12-19T11:44:49.665Z,8.77
2018-12-19T11:47:17.874Z,8.07
2018-12-19T11:49:46.101Z,8.27
2018-12-19T11:52:14.281Z,8.60
2018-12-19T11:54:42.496Z,8.37
2018-12-19T11:57:11.002Z,7.80
2018-12-19T11:59:39.244Z,8.93
2018-12-19T12:02:07.469Z,7.37
2018-12-19T12:04:35.693Z,6.87
2018-12-19T12:07:04.277Z,8.90
2018-12-19T12:09:32.524Z,7.87
2018-12-19T12:12:00.766Z,8.57
2018-12-19T12:14:29.044Z,8.03
2018-12-19T12:16:57.281Z,7.57
2018-12-19T12:19:25.510Z,8.83
2018-12-19T12:21:53.783Z,7.37
2018-12-19T12:24:22.108Z,7.87
2018-12-19T12:26:50.387Z,8.37
2018-12-19T12:29:18.678Z,9.80
2018-12-19T12:31:46.921Z,8.93
2018-12-19T12:34:15.188Z,8.87
2018-12-19T12:36:43.532Z,8.50
2018-12-19T12:39:11.876Z,8.10
2018-12-19T12:41:40.165Z,9.43
2018-12-19T12:44:08.435Z,8.73
2018-12-19T12:46:43.193Z,8.23
2018-12-19T12:49:11.821Z,8.87
2018-12-19T12:51:40.320Z,8.80
2018-12-19T12:54:08.610Z,8.37
2018-12-19T12:56:36.912Z,9.03
2018-12-19T12:59:05.186Z,9.60
2018-12-19T13:01:33.463Z,10.00
2018-12-19T13:04:01.653Z,9.77
2018-12-19T13:06:29.912Z,8.80
2018-12-19T13:08:58.193Z,10.30
2018-12-19T13:11:26.418Z,10.00
2018-12-19T13:13:54.653Z,10.40
2018-12-19T13:16:22.901Z,9.43
2018-12-19T13:18:51.097Z,11.23
2018-12-19T13:21:19.311Z,8.67
2018-12-19T13:23:47.498Z,10.43
2018-12-19T13:26:15.715Z,9.87
2018-12-19T13:28:45.156Z,11.33
2018-12-19T13:31:13.594Z,10.43
2018-12-19T13:33:41.891Z,10.87
2018-12-19T13:36:10.114Z,11.17
2018-12-19T13:38:38.353Z,10.27
2018-12-19T13:41:06.583Z,10.10
2018-12-19T13:43:34.817Z,12.00
2018-12-19T13:46:03.163Z,10.83
2018-12-19T13:48:31.371Z,10.83
2018-12-19T13:50:59.617Z,10.13
2018-12-19T13:53:27.820Z,12.10
2018-12-19T13:55:56.053Z,11.70
2018-12-19T13:58:24.273Z,10.73
2018-12-19T14:00:52.490Z,11.90
2018-12-19T14:03:20.701Z,10.83
2018-12-19T14:05:48.998Z,10.03
2018-12-19T14:08:17.306Z,12.17
2018-12-19T14:10:45.553Z,12.30
2018-12-19T14:13:14.177Z,11.63
2018-12-19T14:15:42.393Z,10.87
2018-12-19T14:18:10.601Z,10.87
2018-12-19T14:20:38.837Z,11.43
2018-12-19T14:23:07.053Z,11.20
2018-12-19T14:25:35.297Z,11.43
2018-12-19T14:28:03.676Z,12.27
2018-12-19T14:30:32.031Z,11.07
2018-12-19T14:33:00.325Z,11.40
2018-12-19T14:35:28.543Z,10.57
2018-12-19T14:37:56.763Z,9.73
2018-12-19T14:40:25.040Z,11.13
2018-12-19T14:42:53.263Z,11.00
2018-12-19T14:45:25.165Z,9.67
2018-12-19T14:47:53.437Z,9.63
2018-12-19T14:50:21.675Z,10.33
2018-12-19T14:52:55.499Z,9.83
2018-12-19T14:55:23.856Z,12.23
2018-12-19T14:57:52.095Z,10.03
2018-12-19T15:00:20.402Z,9.60
2018-12-19T15:02:48.637Z,9.53
2018-12-19T15:05:16.839Z,9.27
2018-12-19T15:07:45.108Z,9.10
2018-12-19T15:10:13.335Z,8.57
2018-12-19T15:12:41.564Z,10.63
2018-12-19T15:15:09.969Z,9.37
2018-12-19T15:17:38.238Z,9.27
2018-12-19T15:20:06.608Z,8.93
2018-12-19T15:22:34.845Z,8.60
2018-12-19T15:25:03.342Z,8.03
2018-12-19T15:27:31.598Z,8.93
2018-12-19T15:29:59.821Z,8.10
2018-12-19T15:32:28.067Z,9.73
2018-12-19T15:34:56.284Z,8.40
2018-12-19T15:37:24.523Z,8.23
2018-12-19T15:39:52.734Z,8.13
2018-12-19T15:42:20.958Z,8.87
2018-12-19T15:44:49.187Z,9.60
2018-12-19T15:47:17.421Z,8.30
2018-12-19T15:49:45.722Z,8.70
2018-12-19T15:52:13.961Z,9.37
2018-12-19T15:54:42.239Z,9.20
2018-12-19T15:57:10.501Z,9.13
2018-12-19T15:59:38.773Z,9.50
2018-12-19T16:02:07.097Z,9.07
2018-12-19T16:04:35.324Z,8.93
2018-12-19T16:07:03.636Z,9.00
2018-12-19T16:09:31.870Z,9.73
2018-12-19T16:12:00.087Z,9.67
2018-12-19T16:14:28.333Z,25.17
2018-12-19T16:16:56.564Z,9.73
2018-12-19T16:19:24.815Z,11.23
2018-12-19T16:21:53.066Z,10.53
2018-12-19T16:24:21.355Z,10.93
2018-12-19T16:26:49.577Z,9.47
2018-12-19T16:29:17.822Z,9.03
2018-12-19T16:31:46.068Z,8.50
2018-12-19T16:34:14.303Z,9.57
2018-12-19T16:36:42.508Z,10.93
2018-12-19T16:39:10.744Z,9.30
2018-12-19T16:41:39.006Z,9.20
2018-12-19T16:44:07.262Z,9.17
2018-12-19T16:46:35.575Z,8.83
2018-12-19T16:49:03.877Z,9.43
2018-12-19T16:51:32.105Z,9.13
2018-12-19T16:54:00.296Z,8.70
2018-12-19T16:56:28.547Z,8.67
2018-12-19T16:58:56.793Z,8.43
2018-12-19T17:01:25.029Z,8.83
2018-12-19T17:03:53.279Z,8.03
2018-12-19T17:06:21.596Z,8.23
2018-12-19T17:08:49.793Z,8.83
2018-12-19T17:11:18.006Z,9.57
2018-12-19T17:13:46.217Z,8.43
2018-12-19T17:16:14.443Z,7.97
2018-12-19T17:18:42.762Z,9.73
2018-12-19T17:21:12.265Z,8.57
2018-12-19T17:23:40.458Z,9.77
2018-12-19T17:26:08.696Z,8.03
2018-12-19T17:28:36.875Z,9.10
2018-12-19T17:31:05.176Z,8.70
2018-12-19T17:33:33.374Z,9.60
2018-12-19T17:36:01.600Z,8.07
2018-12-19T17:38:29.998Z,8.53
2018-12-19T17:40:58.213Z,8.10
2018-12-19T17:43:26.405Z,8.37
2018-12-19T17:45:54.845Z,8.47
2018-12-19T17:48:23.219Z,10.30
2018-12-19T17:50:51.408Z,9.50
2018-12-19T17:53:19.907Z,9.33
2018-12-19T17:55:48.414Z,8.90
2018-12-19T17:58:16.619Z,8.57
2018-12-19T18:00:44.954Z,8.77
2018-12-19T18:03:13.186Z,8.37
2018-12-19T18:05:41.415Z,8.30
2018-12-19T18:08:09.671Z,8.57
2018-12-19T18:10:38.134Z,8.43
2018-12-19T18:13:06.571Z,8.60
2018-12-19T18:15:34.911Z,8.43
2018-12-19T18:18:03.441Z,8.30
2018-12-19T18:20:31.829Z,7.93
2018-12-19T18:23:00.046Z,8.63
2018-12-19T18:25:28.343Z,7.53
2018-12-19T18:27:56.597Z,8.43
2018-12-19T18:30:24.810Z,8.47
2018-12-19T18:32:53.032Z,7.80
2018-12-19T18:35:21.426Z,8.57
2018-12-19T18:37:49.605Z,7.43
2018-12-19T18:40:18.716Z,8.33
2018-12-19T18:42:47.253Z,9.43
2018-12-19T18:45:15.653Z,8.90
2018-12-19T18:47:43.963Z,7.13
2018-12-19T18:50:12.238Z,6.60
2018-12-19T18:52:40.606Z,8.43
2018-12-19T18:55:08.928Z,8.27
2018-12-19T18:57:37.373Z,7.80
2018-12-19T19:00:07.351Z,7.40
2018-12-19T19:02:35.892Z,8.33
2018-12-19T19:05:04.983Z,8.07
2018-12-19T19:07:33.235Z,8.00
2018-12-19T19:10:01.598Z,7.07
2018-12-19T19:12:29.898Z,8.97
2018-12-19T19:14:58.096Z,9.63
2018-12-19T19:17:26.324Z,7.20
2018-12-19T19:19:54.630Z,9.67
2018-12-19T19:22:23.020Z,8.83
2018-12-19T19:24:51.281Z,8.10
2018-12-19T19:27:19.675Z,7.37
2018-12-19T19:29:48.090Z,9.03
2018-12-19T19:32:16.382Z,7.70
2018-12-19T19:34:44.790Z,7.63
2018-12-19T19:37:13.081Z,8.30
2018-12-19T19:39:41.319Z,8.23
2018-12-19T19:42:09.547Z,7.80
2018-12-19T19:44:37.958Z,7.87
2018-12-19T19:47:06.304Z,8.97
2018-12-19T19:49:34.582Z,7.43
2018-12-19T19:52:02.960Z,8.50
2018-12-19T19:54:31.282Z,7.97
2018-12-19T19:56:59.640Z,8.93
2018-12-19T19:59:28.094Z,7.33
2018-12-19T20:01:56.691Z,8.83
2018-12-19T20:04:25.009Z,7.53
2018-12-19T20:06:59.275Z,9.10
2018-12-19T20:09:23.428Z,8.60
2018-12-19T20:11:51.703Z,7.47
2018-12-19T20:14:19.893Z,7.73
2018-12-19T20:16:53.658Z,8.10
2018-12-19T20:19:21.977Z,7.80
2018-12-19T20:21:50.213Z,7.43
2018-12-19T20:24:18.445Z,8.77
2018-12-19T20:26:46.705Z,7.30
2018-12-19T20:29:15.037Z,7.43
2018-12-19T20:31:43.288Z,8.87
2018-12-19T20:34:11.493Z,9.53
2018-12-19T20:36:39.804Z,7.77
2018-12-19T20:39:08.490Z,9.00
2018-12-19T20:41:37.725Z,7.60
2018-12-19T20:44:06.065Z,8.47
2018-12-19T20:46:34.377Z,9.30
2018-12-19T20:49:02.626Z,8.47
2018-12-19T20:51:31.045Z,8.33
2018-12-19T20:53:59.285Z,8.23
2018-12-19T20:56:27.643Z,8.83
2018-12-19T20:58:56.019Z,8.40
2018-12-19T21:01:24.345Z,8.70
2018-12-19T21:03:52.690Z,7.43
2018-12-19T21:06:20.957Z,7.93
2018-12-19T21:08:49.141Z,7.77
2018-12-19T21:11:17.512Z,8.53
2018-12-19T21:13:46.898Z,7.70
2018-12-19T21:16:16.118Z,7.83
2018-12-19T21:18:51.384Z,7.60
2018-12-19T21:21:19.710Z,9.03
2018-12-19T21:23:47.918Z,7.87
2018-12-19T21:26:16.561Z,8.50
2018-12-19T21:28:44.769Z,9.10
2018-12-19T21:31:13.052Z,9.07
2018-12-19T21:33:41.317Z,8.77
2018-12-19T21:36:09.635Z,9.23
2018-12-19T21:38:37.885Z,8.83
2018-12-19T21:41:06.110Z,8.50
2018-12-19T21:43:34.542Z,9.57
2018-12-19T21:46:02.837Z,8.27
2018-12-19T21:48:31.180Z,8.50
2018-12-19T21:50:59.463Z,8.97
2018-12-19T21:53:27.649Z,9.53
2018-12-19T21:55:55.963Z,9.40
2018-12-19T21:58:24.407Z,9.00
2018-12-19T22:00:52.728Z,8.23
2018-12-19T22:03:21.090Z,8.27
2018-12-19T22:05:49.544Z,8.87
2018-12-19T22:08:17.919Z,8.17
2018-12-19T22:10:46.226Z,8.47
2018-12-19T22:13:14.516Z,9.37
2018-12-19T22:15:44.088Z,8.50
2018-12-19T22:18:17.938Z,8.57
2018-12-19T22:20:46.279Z,10.97
2018-12-19T22:23:14.590Z,8.33
2018-12-19T22:25:42.953Z,8.80
2018-12-19T22:28:11.396Z,8.73
2018-12-19T22:30:39.781Z,9.10
2018-12-19T22:33:08.098Z,8.97
2018-12-19T22:35:36.436Z,8.93
2018-12-19T22:38:04.724Z,8.53
2018-12-19T22:40:33.081Z,8.33
2018-12-19T22:43:01.435Z,10.00
2018-12-19T22:45:29.986Z,9.03
2018-12-19T22:47:58.416Z,8.43
2018-12-19T22:50:27.807Z,8.43
2018-12-19T22:52:56.122Z,8.83
2018-12-19T22:55:24.390Z,8.63
2018-12-19T22:57:52.741Z,9.90
2018-12-19T23:00:21.164Z,9.20
2018-12-19T23:02:54.739Z,9.33
2018-12-19T23:05:28.490Z,9.83
2018-12-19T23:07:56.869Z,9.23
2018-12-19T23:10:25.197Z,8.87
2018-12-19T23:12:53.578Z,9.67
2018-12-19T23:15:22.046Z,8.27
2018-12-19T23:17:50.323Z,9.57
2018-12-19T23:20:19.364Z,9.17
2018-12-19T23:22:47.713Z,10.60
2018-12-19T23:25:15.981Z,9.23
2018-12-19T23:27:44.422Z,7.87
2018-12-19T23:30:12.957Z,8.40
2018-12-19T23:32:41.642Z,9.10
2018-12-19T23:35:10.004Z,9.30
2018-12-19T23:37:38.505Z,8.43
2018-12-19T23:40:06.960Z,9.13
2018-12-19T23:42:35.334Z,8.53
2018-12-19T23:45:04.177Z,9.13
2018-12-19T23:47:32.479Z,9.47
2018-12-19T23:50:00.777Z,8.87
2018-12-19T23:52:29.201Z,8.50
2018-12-19T23:54:57.536Z,9.87
2018-12-19T23:57:25.850Z,8.80
2018-12-19T23:59:54.120Z,8.17
